Time;durP1;ratioP1;P1;durP2;ratioP2;P2;SDS_P1;SDS_P2;PMS_P1;PMS_P2;Temp;Humidity;BMP_temperature;BMP_pressure;BME280_temperature;BME280_humidity;BME280_pressure;Samples;Min_cycle;Max_cycle;Signal;HPM_P1;HPM_P2
2023/07/02 00:00:51;;;;;;;;;;;;;;;21.68;27.10;97256.31;4951778;28;1588;-75
2023/07/02 00:03:21;;;;;;;;;;;;;;;21.84;26.87;97264.59;4978856;28;775;-74
2023/07/02 00:05:49;;;;;;;;;;;;;;;21.87;27.09;97262.09;4914261;28;1099;-74
2023/07/02 00:08:15;;;;;;;;;;;;;;;22.14;26.58;97259.41;4961849;28;740;-75
2023/07/02 00:10:41;;;;;;;;;;;;;;;21.99;26.84;97247.03;4961809;28;864;-75
2023/07/02 00:13:07;;;;;;;;;;;;;;;21.89;26.92;97231.25;4945551;28;887;-74
2023/07/02 00:15:32;;;;;;;;;;;;;;;21.78;27.33;97238.13;4945773;28;811;-74
2023/07/02 00:17:58;;;;;;;;;;;;;;;22.01;27.07;97238.84;4945796;28;1966;-75
2023/07/02 00:20:23;;;;;;;;;;;;;;;22.13;26.90;97238.00;4978676;28;802;-75
2023/07/02 00:22:49;;;;;;;;;;;;;;;22.26;26.81;97226.53;4961565;28;763;-74
2023/07/02 00:25:14;;;;;;;;;;;;;;;22.30;26.67;97227.97;4959992;28;902;-75
2023/07/02 00:27:40;;;;;;;;;;;;;;;21.99;27.25;97224.38;4944491;28;1193;-74
2023/07/02 00:30:06;;;;;;;;;;;;;;;22.11;26.98;97220.66;4944142;28;1072;-75
2023/07/02 00:32:31;;;;;;;;;;;;;;;22.05;27.08;97228.16;4976126;28;780;-74
2023/07/02 00:34:58;;;;;;;;;;;;;;;21.98;27.53;97217.91;4975839;28;1212;-75
2023/07/02 00:37:24;;;;;;;;;;;;;;;21.99;27.29;97221.53;4960288;28;1903;-74
2023/07/02 00:39:49;;;;;;;;;;;;;;;21.99;27.51;97218.72;4959828;28;892;-74
2023/07/02 00:42:16;;;;;;;;;;;;;;;22.26;27.12;97215.97;4928558;28;1373;-74
2023/07/02 00:44:42;;;;;;;;;;;;;;;22.05;27.15;97205.50;4960009;28;750;-74
2023/07/02 00:47:08;;;;;;;;;;;;;;;22.09;27.29;97211.81;4976123;28;759;-74
2023/07/02 00:49:33;;;;;;;;;;;;;;;22.01;27.31;97216.19;4940309;29;952;-75
2023/07/02 00:51:59;;;;;;;;;;;;;;;21.87;27.63;97205.44;4925033;29;1175;-74
2023/07/02 00:54:27;;;;;;;;;;;;;;;21.99;27.51;97202.50;4924806;29;1148;-74
2023/07/02 00:56:53;;;;;;;;;;;;;;;22.12;26.99;97205.22;4925227;29;1109;-74
2023/07/02 00:59:18;;;;;;;;;;;;;;;22.10;27.12;97208.53;4956455;29;1950;-75
2023/07/02 01:01:49;;;;;;;;;;;;;;;21.93;27.74;97203.59;4940694;29;719;-74
2023/07/02 01:04:16;;;;;;;;;;;;;;;21.88;28.06;97204.19;4940959;29;941;-74
2023/07/02 01:06:42;;;;;;;;;;;;;;;22.02;27.48;97212.09;4940781;29;1229;-75
2023/07/02 01:09:07;;;;;;;;;;;;;;;22.12;27.39;97199.56;4940775;29;1304;-74
2023/07/02 01:11:34;;;;;;;;;;;;;;;22.29;27.05;97200.88;4941030;29;1100;-74
2023/07/02 01:14:00;;;;;;;;;;;;;;;22.10;27.51;97190.72;4940376;29;819;-75
2023/07/02 01:16:26;;;;;;;;;;;;;;;22.05;27.33;97188.50;4941020;29;1121;-74
2023/07/02 01:18:54;;;;;;;;;;;;;;;22.14;27.25;97191.41;4940736;29;1989;-74
2023/07/02 01:21:20;;;;;;;;;;;;;;;21.93;27.45;97192.25;4944649;28;1054;-75
2023/07/02 01:23:47;;;;;;;;;;;;;;;22.05;27.63;97188.50;4977814;28;783;-74
2023/07/02 01:26:12;;;;;;;;;;;;;;;21.97;27.57;97187.25;4960670;28;779;-74
2023/07/02 01:28:38;;;;;;;;;;;;;;;21.97;27.46;97190.06;4960291;28;830;-74
2023/07/02 01:31:04;;;;;;;;;;;;;;;22.10;27.53;97193.56;4959609;28;1104;-75
2023/07/02 01:33:29;;;;;;;;;;;;;;;22.04;27.58;97178.44;4943121;28;1194;-74
2023/07/02 01:35:55;;;;;;;;;;;;;;;22.17;27.40;97190.44;4979414;28;973;-76
2023/07/02 01:38:22;;;;;;;;;;;;;;;22.25;27.44;97183.22;4946905;28;1977;-73
2023/07/02 01:40:47;;;;;;;;;;;;;;;21.97;27.66;97192.91;4979394;28;799;-74
2023/07/02 01:43:13;;;;;;;;;;;;;;;21.83;28.15;97189.38;4963164;28;1030;-74
2023/07/02 01:45:42;;;;;;;;;;;;;;;21.97;27.65;97182.34;4947411;28;1245;-74
2023/07/02 01:48:08;;;;;;;;;;;;;;;22.01;27.76;97188.63;4978931;28;958;-74
2023/07/02 01:50:34;;;;;;;;;;;;;;;22.04;27.91;97186.94;4915704;28;968;-74
2023/07/02 01:52:59;;;;;;;;;;;;;;;21.99;27.89;97184.72;4962867;28;740;-74
2023/07/02 01:55:25;;;;;;;;;;;;;;;22.06;27.91;97184.41;4959488;28;1170;-74
2023/07/02 01:57:51;;;;;;;;;;;;;;;21.74;28.32;97175.19;4943306;29;1902;-75
2023/07/02 02:00:17;;;;;;;;;;;;;;;22.05;27.79;97182.84;4959780;28;1151;-75
2023/07/02 02:02:43;;;;;;;;;;;;;;;22.23;27.70;97182.94;4959451;29;755;-74
2023/07/02 02:05:09;;;;;;;;;;;;;;;22.40;27.52;97171.31;4943204;29;835;-75
2023/07/02 02:07:35;;;;;;;;;;;;;;;22.14;27.61;97171.56;4943467;29;867;-74
2023/07/02 02:10:01;;;;;;;;;;;;;;;21.92;27.98;97179.34;4943292;29;1180;-74
2023/07/02 02:12:28;;;;;;;;;;;;;;;22.15;27.80;97170.31;4943530;29;696;-74
2023/07/02 02:14:54;;;;;;;;;;;;;;;22.06;27.77;97167.41;4943409;29;1143;-74
2023/07/02 02:17:19;;;;;;;;;;;;;;;21.97;28.25;97164.56;4943436;29;1906;-74
2023/07/02 02:19:45;;;;;;;;;;;;;;;22.19;27.58;97175.84;4943323;29;1104;-75
2023/07/02 02:22:10;;;;;;;;;;;;;;;22.11;27.92;97175.31;4943005;29;890;-75
2023/07/02 02:24:36;;;;;;;;;;;;;;;22.19;27.58;97173.78;4943030;29;712;-74
2023/07/02 02:27:01;;;;;;;;;;;;;;;22.18;27.59;97171.44;4963072;28;773;-74
2023/07/02 02:29:27;;;;;;;;;;;;;;;22.20;27.65;97181.03;4963065;28;744;-75
2023/07/02 02:31:52;;;;;;;;;;;;;;;22.29;27.66;97180.25;4947334;28;1118;-75
2023/07/02 02:34:19;;;;;;;;;;;;;;;22.17;27.93;97176.28;4963022;28;1225;-75
2023/07/02 02:36:47;;;;;;;;;;;;;;;22.11;28.06;97175.31;4924056;29;1188;-75
2023/07/02 02:39:12;;;;;;;;;;;;;;;21.94;28.27;97171.16;4908161;29;2078;-75
2023/07/02 02:41:38;;;;;;;;;;;;;;;22.22;27.69;97175.66;4908332;29;1310;-74
2023/07/02 02:44:04;;;;;;;;;;;;;;;21.92;28.21;97173.69;4908289;29;1226;-74
2023/07/02 02:46:30;;;;;;;;;;;;;;;21.90;28.21;97173.34;4923931;29;868;-75
2023/07/02 02:48:56;;;;;;;;;;;;;;;22.03;28.14;97174.03;4923754;29;931;-75
2023/07/02 02:51:21;;;;;;;;;;;;;;;21.93;28.11;97176.03;4924189;29;1375;-75
2023/07/02 02:53:47;;;;;;;;;;;;;;;22.06;27.97;97175.91;4923518;29;936;-75
2023/07/02 02:56:12;;;;;;;;;;;;;;;21.88;28.09;97178.69;4923774;29;921;-76
2023/07/02 02:58:39;;;;;;;;;;;;;;;22.16;27.70;97171.88;4923764;29;1907;-75
2023/07/02 03:01:10;;;;;;;;;;;;;;;22.22;27.67;97174.88;4908497;29;1227;-75
2023/07/02 03:03:39;;;;;;;;;;;;;;;22.27;27.47;97174.25;4923559;29;1078;-75
2023/07/02 03:06:05;;;;;;;;;;;;;;;22.39;27.30;97179.03;4940390;29;989;-75
2023/07/02 03:08:31;;;;;;;;;;;;;;;22.24;27.87;97178.84;4956297;28;810;-75
2023/07/02 03:10:56;;;;;;;;;;;;;;;22.27;27.86;97183.53;4963269;28;876;-75
2023/07/02 03:13:22;;;;;;;;;;;;;;;22.00;28.23;97175.75;4947063;28;1399;-76
2023/07/02 03:15:47;;;;;;;;;;;;;;;22.07;28.10;97180.31;4947459;28;1323;-76
2023/07/02 03:18:13;;;;;;;;;;;;;;;22.16;27.65;97177.53;4947212;28;1914;-75
2023/07/02 03:20:38;;;;;;;;;;;;;;;22.18;27.97;97186.38;4942375;29;948;-75
2023/07/02 03:23:04;;;;;;;;;;;;;;;21.99;28.29;97191.16;4942249;29;1070;-75
2023/07/02 03:25:29;;;;;;;;;;;;;;;21.91;28.40;97194.75;4958658;29;827;-75
2023/07/02 03:27:55;;;;;;;;;;;;;;;22.11;28.11;97186.66;4910997;29;1177;-74
2023/07/02 03:30:20;;;;;;;;;;;;;;;22.16;28.14;97183.22;4942444;29;976;-75
2023/07/02 03:32:46;;;;;;;;;;;;;;;22.16;28.20;97193.75;4942120;29;1079;-76
2023/07/02 03:35:11;;;;;;;;;;;;;;;22.06;28.35;97190.06;4926868;29;1223;-76
2023/07/02 03:37:37;;;;;;;;;;;;;;;22.05;28.38;97194.16;4942229;29;1960;-75
2023/07/02 03:40:03;;;;;;;;;;;;;;;22.03;28.39;97196.69;4942079;29;1011;-75
2023/07/02 03:42:28;;;;;;;;;;;;;;;22.28;27.76;97202.16;4957957;29;1258;-75
2023/07/02 03:44:54;;;;;;;;;;;;;;;22.06;28.28;97207.06;4958203;29;873;-75
2023/07/02 03:47:19;;;;;;;;;;;;;;;22.27;27.92;97211.88;4942464;29;964;-75
2023/07/02 03:49:45;;;;;;;;;;;;;;;21.97;28.52;97198.56;4942064;29;1129;-75
2023/07/02 03:52:10;;;;;;;;;;;;;;;22.22;28.16;97204.00;4942216;29;938;-74
2023/07/02 03:54:36;;;;;;;;;;;;;;;22.38;27.90;97199.31;4957651;29;1014;-75
2023/07/02 03:57:02;;;;;;;;;;;;;;;22.36;27.70;97206.25;4942320;29;993;-75
2023/07/02 03:59:27;;;;;;;;;;;;;;;22.31;28.01;97201.19;4941629;29;1914;-75
2023/07/02 04:01:53;;;;;;;;;;;;;;;22.41;27.81;97204.84;4958043;29;1219;-75
2023/07/02 04:04:18;;;;;;;;;;;;;;;22.23;28.21;97199.16;4957927;29;1088;-75
2023/07/02 04:06:44;;;;;;;;;;;;;;;21.97;28.61;97207.06;4942123;29;1160;-75
2023/07/02 04:09:09;;;;;;;;;;;;;;;22.22;28.13;97206.81;4941401;29;952;-74
2023/07/02 04:11:35;;;;;;;;;;;;;;;22.32;28.12;97208.44;4957938;29;915;-75
2023/07/02 04:14:00;;;;;;;;;;;;;;;22.16;28.53;97205.88;4956121;28;949;-75
2023/07/02 04:16:26;;;;;;;;;;;;;;;22.21;28.11;97201.63;4978938;28;877;-76
2023/07/02 04:18:51;;;;;;;;;;;;;;;22.44;28.06;97201.06;4945567;28;1911;-75
2023/07/02 04:21:16;;;;;;;;;;;;;;;22.42;28.02;97199.94;4929334;28;969;-75
2023/07/02 04:23:42;;;;;;;;;;;;;;;22.27;28.29;97196.94;4945308;28;999;-75
2023/07/02 04:26:08;;;;;;;;;;;;;;;22.44;28.21;97203.13;4913571;28;1265;-75
2023/07/02 04:28:33;;;;;;;;;;;;;;;22.22;28.23;97204.00;4945661;28;918;-75
2023/07/02 04:30:59;;;;;;;;;;;;;;;22.15;28.70;97200.69;4961684;28;974;-75
2023/07/02 04:33:24;;;;;;;;;;;;;;;22.27;28.57;97203.38;4945512;28;1190;-75
2023/07/02 04:35:50;;;;;;;;;;;;;;;21.95;28.95;97195.41;4962003;28;1041;-76
2023/07/02 04:38:16;;;;;;;;;;;;;;;22.16;28.87;97205.09;4945105;28;1902;-75
2023/07/02 04:40:44;;;;;;;;;;;;;;;22.24;28.76;97206.38;4945420;28;929;-76
2023/07/02 04:43:10;;;;;;;;;;;;;;;22.42;28.24;97205.63;4945596;28;874;-76
2023/07/02 04:45:36;;;;;;;;;;;;;;;22.64;27.80;97209.13;4961355;28;925;-76
2023/07/02 04:48:02;;;;;;;;;;;;;;;22.12;28.66;97215.78;4961876;28;989;-75
2023/07/02 04:50:27;;;;;;;;;;;;;;;22.21;28.77;97213.75;4961670;28;870;-75
2023/07/02 04:52:53;;;;;;;;;;;;;;;22.39;28.41;97213.03;4961097;28;815;-75
2023/07/02 04:55:18;;;;;;;;;;;;;;;22.44;28.28;97225.78;4961265;28;1092;-76
2023/07/02 04:57:44;;;;;;;;;;;;;;;22.46;28.26;97220.44;4961643;28;1875;-75
2023/07/02 05:00:10;;;;;;;;;;;;;;;22.67;28.00;97222.34;4978758;28;692;-74
2023/07/02 05:02:36;;;;;;;;;;;;;;;22.53;28.08;97225.78;4945566;28;1327;-75
2023/07/02 05:05:01;;;;;;;;;;;;;;;22.39;28.59;97229.25;4961197;28;895;-76
2023/07/02 05:07:27;;;;;;;;;;;;;;;22.33;28.30;97234.75;4945300;28;871;-75
2023/07/02 05:09:52;;;;;;;;;;;;;;;22.19;28.95;97236.13;4980173;28;843;-75
2023/07/02 05:12:18;;;;;;;;;;;;;;;22.24;28.82;97223.38;4994672;28;1048;-75
2023/07/02 05:14:44;;;;;;;;;;;;;;;22.28;28.66;97224.03;4968830;28;902;-74
2023/07/02 05:17:09;;;;;;;;;;;;;;;22.41;28.27;97215.38;4968856;28;1207;-75
2023/07/02 05:19:35;;;;;;;;;;;;;;;22.18;28.62;97226.03;4968122;28;1998;-75
2023/07/02 05:22:00;;;;;;;;;;;;;;;22.06;28.78;97216.34;5001738;28;972;-75
2023/07/02 05:24:26;;;;;;;;;;;;;;;22.40;28.41;97225.16;4968411;28;1178;-75
2023/07/02 05:26:51;;;;;;;;;;;;;;;22.14;28.80;97231.06;4968291;28;864;-76
2023/07/02 05:29:17;;;;;;;;;;;;;;;22.21;28.95;97236.44;4984142;28;1167;-75
2023/07/02 05:31:42;;;;;;;;;;;;;;;22.33;28.54;97238.38;4963537;28;1160;-76
2023/07/02 05:34:08;;;;;;;;;;;;;;;22.63;27.96;97235.88;4963552;28;1259;-76
2023/07/02 05:36:34;;;;;;;;;;;;;;;22.43;28.56;97241.22;4964094;28;1032;-75
2023/07/02 05:39:00;;;;;;;;;;;;;;;22.28;28.83;97241.03;4963646;28;1991;-76
2023/07/02 05:41:30;;;;;;;;;;;;;;;22.33;28.79;97238.38;4963847;28;990;-75
2023/07/02 05:43:56;;;;;;;;;;;;;;;22.39;28.65;97237.75;4963851;28;933;-75
2023/07/02 05:46:22;;;;;;;;;;;;;;;22.48;28.34;97240.59;4963938;28;759;-76
2023/07/02 05:48:47;;;;;;;;;;;;;;;22.66;28.01;97242.69;4947383;28;960;-75
2023/07/02 05:51:13;;;;;;;;;;;;;;;22.50;28.33;97235.25;4963714;28;1093;-75
2023/07/02 05:53:38;;;;;;;;;;;;;;;22.62;28.26;97242.81;4979187;28;986;-76
2023/07/02 05:56:04;;;;;;;;;;;;;;;22.62;28.41;97237.16;4979793;28;843;-75
2023/07/02 05:58:30;;;;;;;;;;;;;;;22.58;28.08;97239.34;4946986;28;1907;-75
2023/07/02 06:00:55;;;;;;;;;;;;;;;22.43;28.67;97241.22;4931634;28;1130;-76
2023/07/02 06:03:21;;;;;;;;;;;;;;;22.53;28.37;97240.75;4979216;28;1010;-76
2023/07/02 06:05:47;;;;;;;;;;;;;;;22.45;28.52;97233.03;4967932;28;990;-75
2023/07/02 06:08:13;;;;;;;;;;;;;;;22.38;28.66;97227.66;4983427;28;915;-75
2023/07/02 06:10:38;;;;;;;;;;;;;;;22.06;28.91;97224.06;5001211;28;826;-75
2023/07/02 06:13:04;;;;;;;;;;;;;;;22.44;28.74;97220.91;4967759;28;762;-75
2023/07/02 06:15:29;;;;;;;;;;;;;;;22.31;28.69;97229.53;4983229;28;929;-75
2023/07/02 06:17:55;;;;;;;;;;;;;;;22.35;28.56;97233.00;4967236;28;1902;-75
2023/07/02 06:20:20;;;;;;;;;;;;;;;22.45;28.50;97227.38;4983232;28;1384;-75
2023/07/02 06:22:46;;;;;;;;;;;;;;;22.52;28.32;97230.69;4967343;28;923;-75
2023/07/02 06:25:11;;;;;;;;;;;;;;;22.42;28.77;97229.09;4967158;28;1247;-75
2023/07/02 06:27:37;;;;;;;;;;;;;;;22.42;28.80;97212.06;5001121;28;863;-75
2023/07/02 06:30:02;;;;;;;;;;;;;;;22.62;28.51;97220.94;4943597;29;1169;-75
2023/07/02 06:32:28;;;;;;;;;;;;;;;22.49;28.47;97223.13;4944109;29;942;-74
2023/07/02 06:34:53;;;;;;;;;;;;;;;22.26;29.14;97235.81;4959343;29;1223;-76
2023/07/02 06:37:19;;;;;;;;;;;;;;;22.29;28.89;97232.06;4959631;29;1910;-75
2023/07/02 06:39:44;;;;;;;;;;;;;;;22.34;28.75;97228.59;4924045;29;1014;-75
2023/07/02 06:42:10;;;;;;;;;;;;;;;22.40;29.03;97231.59;4940700;29;800;-76
2023/07/02 06:44:38;;;;;;;;;;;;;;;22.36;28.95;97226.06;4924081;29;1791;-75
2023/07/02 06:47:03;;;;;;;;;;;;;;;22.53;28.66;97232.25;4924359;29;974;-75
2023/07/02 06:49:29;;;;;;;;;;;;;;;22.36;28.85;97231.75;4939976;29;891;-75
2023/07/02 06:51:54;;;;;;;;;;;;;;;22.48;28.82;97234.91;4924586;29;1113;-75
2023/07/02 06:54:20;;;;;;;;;;;;;;;22.43;28.98;97235.53;4908264;29;1102;-76
2023/07/02 06:56:45;;;;;;;;;;;;;;;22.39;28.93;97223.59;4886702;29;1580;-75
2023/07/02 06:59:11;;;;;;;;;;;;;;;22.32;29.08;97241.66;4901645;29;1911;-76
2023/07/02 07:01:36;;;;;;;;;;;;;;;22.43;29.10;97242.00;4914587;29;1295;-75
2023/07/02 07:04:02;;;;;;;;;;;;;;;22.23;29.42;97245.28;4939604;29;977;-75
2023/07/02 07:06:28;;;;;;;;;;;;;;;22.14;29.53;97247.28;4940078;29;1040;-76
2023/07/02 07:08:54;;;;;;;;;;;;;;;22.26;29.10;97235.81;4939602;29;1110;-75
2023/07/02 07:11:19;;;;;;;;;;;;;;;22.44;29.22;97237.13;4939906;29;878;-75
2023/07/02 07:13:45;;;;;;;;;;;;;;;22.42;29.10;97239.63;4939441;29;1208;-75
2023/07/02 07:16:11;;;;;;;;;;;;;;;22.69;28.74;97242.53;4941683;29;1085;-75
2023/07/02 07:18:36;;;;;;;;;;;;;;;22.61;28.77;97235.59;4942493;29;1914;-76
2023/07/02 07:21:02;;;;;;;;;;;;;;;22.51;29.12;97242.50;4942769;29;920;-75
2023/07/02 07:23:27;;;;;;;;;;;;;;;22.27;29.47;97237.38;4904073;29;1253;-75
2023/07/02 07:25:53;;;;;;;;;;;;;;;22.36;29.53;97237.41;4904829;29;828;-75
2023/07/02 07:28:18;;;;;;;;;;;;;;;22.44;29.46;97237.91;4934327;29;884;-75
2023/07/02 07:30:44;;;;;;;;;;;;;;;22.63;28.93;97233.06;4919092;29;1459;-75
2023/07/02 07:33:09;;;;;;;;;;;;;;;22.28;29.55;97233.31;4928606;29;1295;-75
2023/07/02 07:35:35;;;;;;;;;;;;;;;22.56;28.97;97233.38;4930184;29;1429;-75
2023/07/02 07:38:00;;;;;;;;;;;;;;;22.59;29.14;97233.22;4930397;29;1985;-76
2023/07/02 07:40:26;;;;;;;;;;;;;;;22.63;28.97;97230.22;4928738;29;1228;-77
2023/07/02 07:42:51;;;;;;;;;;;;;;;22.76;28.61;97228.03;4929044;29;1252;-76
2023/07/02 07:45:17;;;;;;;;;;;;;;;22.68;28.80;97223.13;4932098;29;1496;-76
2023/07/02 07:47:43;;;;;;;;;;;;;;;22.83;28.56;97216.38;4919935;29;1469;-76
2023/07/02 07:50:11;;;;;;;;;;;;;;;22.43;29.30;97227.81;4919636;29;974;-75
2023/07/02 07:52:37;;;;;;;;;;;;;;;22.49;29.38;97222.34;4919591;29;955;-76
2023/07/02 07:55:03;;;;;;;;;;;;;;;22.36;29.23;97211.91;4941311;28;1169;-77
2023/07/02 07:57:28;;;;;;;;;;;;;;;22.60;29.20;97228.34;4962572;28;1977;-76
2023/07/02 07:59:54;;;;;;;;;;;;;;;22.56;29.19;97227.69;4961927;28;728;-76
2023/07/02 08:02:19;;;;;;;;;;;;;;;22.54;29.29;97218.88;4962457;28;799;-76
2023/07/02 08:04:45;;;;;;;;;;;;;;;22.69;29.11;97219.84;4961893;28;879;-75
2023/07/02 08:07:10;;;;;;;;;;;;;;;22.51;29.27;97231.16;4961804;28;878;-75
2023/07/02 08:09:36;;;;;;;;;;;;;;;22.50;29.47;97224.69;4961803;28;800;-76
2023/07/02 08:12:03;;;;;;;;;;;;;;;22.62;29.17;97225.81;4979104;28;767;-75
2023/07/02 08:14:28;;;;;;;;;;;;;;;22.56;29.25;97224.88;4945861;28;884;-76
2023/07/02 08:16:54;;;;;;;;;;;;;;;22.48;29.75;97223.56;4962002;28;1183;-76
2023/07/02 08:19:20;;;;;;;;;;;;;;;22.39;29.80;97229.25;4978804;28;1914;-76
2023/07/02 08:21:45;;;;;;;;;;;;;;;22.51;29.44;97234.00;4962421;28;789;-75
2023/07/02 08:24:13;;;;;;;;;;;;;;;22.75;28.95;97234.19;4976638;28;990;-76
2023/07/02 08:26:39;;;;;;;;;;;;;;;22.63;29.30;97233.84;4903235;29;1141;-76
2023/07/02 08:29:04;;;;;;;;;;;;;;;22.61;29.29;97229.91;4918796;29;907;-76
2023/07/02 08:31:30;;;;;;;;;;;;;;;22.74;29.15;97222.06;4902979;29;1170;-76
2023/07/02 08:33:55;;;;;;;;;;;;;;;22.73;29.39;97219.69;4887265;29;1030;-76
2023/07/02 08:36:21;;;;;;;;;;;;;;;22.65;29.52;97216.38;4918833;29;1032;-76
2023/07/02 08:38:46;;;;;;;;;;;;;;;22.79;29.13;97217.78;4903095;29;1914;-76
2023/07/02 08:41:12;;;;;;;;;;;;;;;22.83;29.40;97224.88;4888120;29;1272;-76
2023/07/02 08:43:37;;;;;;;;;;;;;;;22.60;29.78;97234.00;4887234;29;1104;-75
2023/07/02 08:46:03;;;;;;;;;;;;;;;22.73;29.50;97220.47;4900166;29;881;-76
2023/07/02 08:48:29;;;;;;;;;;;;;;;22.53;29.90;97228.63;4884051;29;1036;-75
2023/07/02 08:50:55;;;;;;;;;;;;;;;22.45;29.74;97218.88;4865148;29;1519;-76
2023/07/02 08:53:25;;;;;;;;;;;;;;;22.51;29.71;97225.47;4843957;29;1178;-76
2023/07/02 08:55:50;;;;;;;;;;;;;;;22.53;30.04;97229.41;4844201;29;973;-76
2023/07/02 08:58:16;;;;;;;;;;;;;;;22.70;29.73;97232.75;4857052;29;1990;-77
2023/07/02 09:01:01;;;;;;;;;;;;;;;22.79;29.64;97229.91;4850155;29;1051;-76
2023/07/02 09:03:27;;;;;;;;;;;;;;;22.85;29.53;97221.59;4880296;29;1061;-76
2023/07/02 09:05:52;;;;;;;;;;;;;;;22.55;30.13;97231.78;4880917;29;905;-76
2023/07/02 09:08:27;;;;;;;;;;;;;;;22.76;29.39;97225.19;4865235;29;963;-76
2023/07/02 09:10:53;;;;;;;;;;;;;;;22.52;30.15;97232.72;4865620;29;960;-76
2023/07/02 09:13:19;;;;;;;;;;;;;;;22.75;29.51;97234.97;4865161;29;886;-76
2023/07/02 09:15:44;;;;;;;;;;;;;;;22.70;29.70;97231.97;4865233;29;977;-76
2023/07/02 09:18:16;;;;;;;;;;;;;;;22.79;29.73;97224.25;4865002;29;1989;-76
2023/07/02 09:20:41;;;;;;;;;;;;;;;22.84;29.56;97220.00;4862395;29;1324;-76
2023/07/02 09:23:07;;;;;;;;;;;;;;;22.59;29.87;97226.78;4887748;29;944;-76
2023/07/02 09:25:39;;;;;;;;;;;;;;;22.50;29.99;97219.03;4922144;29;973;-75
2023/07/02 09:28:13;;;;;;;;;;;;;;;22.42;30.41;97216.97;4921347;29;1111;-75
2023/07/02 09:30:48;;;;;;;;;;;;;;;22.68;29.99;97218.25;4921856;29;955;-76
2023/07/02 09:33:13;;;;;;;;;;;;;;;22.72;29.78;97227.41;4920952;29;1204;-75
2023/07/02 09:35:39;;;;;;;;;;;;;;;22.64;30.00;97214.81;4921636;29;1405;-75
2023/07/02 09:38:05;;;;;;;;;;;;;;;22.77;29.85;97215.44;4936937;29;2067;-76
2023/07/02 09:40:31;;;;;;;;;;;;;;;22.81;29.79;97221.75;4921183;29;914;-76
2023/07/02 09:42:56;;;;;;;;;;;;;;;22.76;29.58;97213.84;4937578;29;904;-76
2023/07/02 09:45:21;;;;;;;;;;;;;;;22.70;29.84;97212.91;4921626;29;1083;-77
2023/07/02 09:47:47;;;;;;;;;;;;;;;22.82;29.99;97211.97;4921109;29;946;-76
2023/07/02 09:50:13;;;;;;;;;;;;;;;22.71;29.98;97219.38;4921050;29;1064;-75
2023/07/02 09:52:38;;;;;;;;;;;;;;;22.69;29.80;97225.53;4956395;28;955;-75
2023/07/02 09:55:04;;;;;;;;;;;;;;;22.47;30.22;97216.34;4960700;28;922;-75
2023/07/02 09:57:31;;;;;;;;;;;;;;;22.57;30.06;97221.53;4981857;28;1981;-76
2023/07/02 09:59:56;;;;;;;;;;;;;;;22.91;29.45;97224.63;4981269;28;991;-76
2023/07/02 10:02:22;;;;;;;;;;;;;;;22.93;29.72;97220.03;4981331;28;791;-76
2023/07/02 10:04:50;;;;;;;;;;;;;;;22.61;30.14;97218.56;4981159;28;917;-76
2023/07/02 10:07:25;;;;;;;;;;;;;;;22.74;29.92;97219.22;4940558;29;916;-76
2023/07/02 10:09:51;;;;;;;;;;;;;;;22.59;30.39;97210.53;4940059;29;1066;-76
2023/07/02 10:12:17;;;;;;;;;;;;;;;22.76;29.86;97216.69;4886778;29;1184;-76
2023/07/02 10:14:43;;;;;;;;;;;;;;;22.83;30.00;97213.53;4886529;29;817;-76
2023/07/02 10:17:09;;;;;;;;;;;;;;;22.94;29.55;97218.75;4902795;29;1185;-76
2023/07/02 10:19:34;;;;;;;;;;;;;;;22.91;29.63;97218.94;4908854;29;1919;-76
2023/07/02 10:22:00;;;;;;;;;;;;;;;22.93;29.43;97222.06;4922697;29;1288;-76
2023/07/02 10:24:26;;;;;;;;;;;;;;;22.83;29.69;97213.53;4894864;29;1229;-76
2023/07/02 10:26:55;;;;;;;;;;;;;;;22.99;29.62;97203.94;4912689;29;1272;-76
2023/07/02 10:29:21;;;;;;;;;;;;;;;22.93;29.63;97211.50;4905451;29;863;-75
2023/07/02 10:31:50;;;;;;;;;;;;;;;22.76;30.13;97199.69;4905213;29;963;-76
2023/07/02 10:34:16;;;;;;;;;;;;;;;22.53;30.32;97200.28;4920639;29;1100;-75
2023/07/02 10:36:41;;;;;;;;;;;;;;;22.99;29.72;97203.94;4905091;29;798;-76
2023/07/02 10:39:08;;;;;;;;;;;;;;;22.98;29.57;97190.25;4954046;29;1910;-75
2023/07/02 10:41:34;;;;;;;;;;;;;;;22.76;30.10;97196.84;4959482;29;965;-76
2023/07/02 10:44:09;;;;;;;;;;;;;;;22.83;29.72;97199.34;4974695;28;835;-76
2023/07/02 10:46:35;;;;;;;;;;;;;;;22.83;30.14;97196.50;4982705;28;849;-76
2023/07/02 10:49:00;;;;;;;;;;;;;;;22.79;29.97;97195.88;4999815;28;862;-76
2023/07/02 10:51:28;;;;;;;;;;;;;;;22.68;30.05;97192.72;4967264;28;970;-75
2023/07/02 10:54:00;;;;;;;;;;;;;;;22.96;29.68;97181.44;4982620;28;855;-76
2023/07/02 10:56:28;;;;;;;;;;;;;;;23.08;29.21;97178.41;4982860;28;1048;-76
2023/07/02 10:58:54;;;;;;;;;;;;;;;22.93;29.86;97168.19;4982678;28;1910;-76
2023/07/02 11:01:24;;;;;;;;;;;;;;;22.82;29.76;97180.75;5000185;28;989;-76
2023/07/02 11:04:15;;;;;;;;;;;;;;;22.70;30.12;97176.03;4982305;28;983;-76
2023/07/02 11:06:41;;;;;;;;;;;;;;;22.83;30.07;97175.88;4899976;29;967;-76
2023/07/02 11:09:15;;;;;;;;;;;;;;;23.01;29.53;97183.63;4885905;29;1428;-76
2023/07/02 11:11:59;;;;;;;;;;;;;;;22.87;29.87;97174.47;4883391;29;1101;-76
2023/07/02 11:14:28;;;;;;;;;;;;;;;22.69;30.41;97171.66;4867107;29;1040;-77
2023/07/02 11:16:56;;;;;;;;;;;;;;;22.92;29.78;97172.28;4882649;29;910;-76
2023/07/02 11:19:22;;;;;;;;;;;;;;;22.97;29.98;97177.31;4882271;29;1982;-75
2023/07/02 11:21:55;;;;;;;;;;;;;;;22.69;30.20;97174.47;4882465;29;952;-77
2023/07/02 11:24:28;;;;;;;;;;;;;;;22.98;29.82;97167.53;4867182;29;965;-76
2023/07/02 11:26:53;;;;;;;;;;;;;;;23.02;29.51;97162.50;4882449;29;918;-76
2023/07/02 11:29:19;;;;;;;;;;;;;;;22.70;30.38;97178.09;4882128;29;907;-76
2023/07/02 11:31:44;;;;;;;;;;;;;;;22.80;30.22;97174.78;4882495;29;1035;-76
2023/07/02 11:34:16;;;;;;;;;;;;;;;22.51;30.49;97180.13;4866499;29;1260;-76
2023/07/02 11:36:42;;;;;;;;;;;;;;;22.69;30.26;97185.81;4867215;29;924;-76
2023/07/02 11:39:07;;;;;;;;;;;;;;;22.79;30.17;97175.25;4881831;29;1980;-76
2023/07/02 11:41:36;;;;;;;;;;;;;;;22.80;29.89;97183.28;4866455;29;887;-76
2023/07/02 11:44:02;;;;;;;;;;;;;;;22.88;29.97;97181.72;4920356;28;882;-76
2023/07/02 11:46:27;;;;;;;;;;;;;;;22.88;29.84;97176.06;4961725;28;776;-77
2023/07/02 11:48:52;;;;;;;;;;;;;;;22.91;29.66;97184.91;4961864;28;938;-76
2023/07/02 11:51:18;;;;;;;;;;;;;;;22.86;29.53;97178.56;4979486;28;854;-77
2023/07/02 11:53:44;;;;;;;;;;;;;;;22.66;30.09;97181.09;4961651;28;895;-76
2023/07/02 11:56:09;;;;;;;;;;;;;;;22.68;30.22;97183.44;4962537;28;1183;-77
2023/07/02 11:58:35;;;;;;;;;;;;;;;22.74;29.90;97179.53;4961440;28;1902;-77
2023/07/02 12:01:00;;;;;;;;;;;;;;;22.80;29.58;97182.50;4962555;28;873;-76
2023/07/02 12:03:26;;;;;;;;;;;;;;;22.71;29.98;97180.44;4978460;28;912;-76
2023/07/02 12:05:51;;;;;;;;;;;;;;;22.81;29.74;97179.19;4961976;28;871;-76
2023/07/02 12:08:17;;;;;;;;;;;;;;;22.87;29.73;97168.78;4961417;28;993;-76
2023/07/02 12:10:42;;;;;;;;;;;;;;;22.94;29.42;97166.91;4979192;28;872;-76
2023/07/02 12:13:08;;;;;;;;;;;;;;;22.86;29.67;97181.41;4961786;28;851;-76
2023/07/02 12:15:33;;;;;;;;;;;;;;;22.97;29.34;97177.31;4979126;28;910;-76
2023/07/02 12:17:59;;;;;;;;;;;;;;;22.85;29.50;97182.66;4978657;28;1899;-76
2023/07/02 12:20:24;;;;;;;;;;;;;;;22.60;29.96;97189.44;4978931;28;957;-76
2023/07/02 12:22:50;;;;;;;;;;;;;;;22.41;30.25;97182.16;4978783;28;1085;-76
2023/07/02 12:25:15;;;;;;;;;;;;;;;22.81;29.47;97182.03;4945462;28;886;-76
2023/07/02 12:27:41;;;;;;;;;;;;;;;22.84;29.59;97166.88;4978528;28;866;-76
2023/07/02 12:30:08;;;;;;;;;;;;;;;22.72;29.67;97170.69;4978832;28;894;-76
2023/07/02 12:32:33;;;;;;;;;;;;;;;22.72;29.87;97173.50;4961507;28;1142;-76
2023/07/02 12:34:59;;;;;;;;;;;;;;;22.80;29.58;97171.94;4961268;28;1090;-76
2023/07/02 12:37:25;;;;;;;;;;;;;;;22.96;29.36;97170.09;4978955;28;825;-76
2023/07/02 12:39:50;;;;;;;;;;;;;;;23.00;29.42;97170.69;4978576;28;1973;-76
2023/07/02 12:42:16;;;;;;;;;;;;;;;22.99;29.62;97160.59;4961678;28;959;-76
2023/07/02 12:44:41;;;;;;;;;;;;;;;22.91;29.52;97162.22;4978764;28;875;-76
2023/07/02 12:47:08;;;;;;;;;;;;;;;22.77;29.89;97164.38;4978745;28;866;-76
2023/07/02 12:49:34;;;;;;;;;;;;;;;22.98;29.63;97167.53;4978226;28;875;-76
2023/07/02 12:51:59;;;;;;;;;;;;;;;22.87;29.60;97163.13;4961765;28;763;-76
2023/07/02 12:54:25;;;;;;;;;;;;;;;22.83;29.73;97164.53;4944266;28;901;-76
2023/07/02 12:56:50;;;;;;;;;;;;;;;22.81;29.93;97159.34;4978396;28;826;-76